Time,TemperatureF,DewpointF,PressureIn,WindDirection,WindDirectionDegrees,WindSpeedMPH,WindSpeedGustMPH,Humidity,HourlyPrecipIn,Conditions,Clouds,dailyrainin,SolarRadiationWatts/m^2,SoftwareType,DateUTC
2013-01-18 00:02:00,12.0,8.0,-100.00,NNW,340,0.0,1.0,83,-99.99,,,0.00,0.000000,,2013-01-18 08:02:00,
2013-01-18 00:11:00,12.0,8.0,-100.00,NNW,340,0.0,1.0,83,-99.99,,,0.00,0.000000,,2013-01-18 08:11:00,
2013-01-18 00:42:00,10.0,6.0,-100.00,NNW,340,0.0,1.0,85,-99.99,,,0.00,0.000000,,2013-01-18 08:42:00,
2013-01-18 00:53:00,10.0,6.0,-100.00,NNW,340,0.0,1.0,85,-99.99,,,0.00,0.000000,,2013-01-18 08:53:00,
2013-01-18 01:02:00,10.0,6.0,-100.00,NNW,340,0.0,1.0,85,-99.99,,,0.00,0.000000,,2013-01-18 09:02:00,
2013-01-18 01:12:00,10.0,6.0,-100.00,NNW,340,0.0,1.0,85,-99.99,,,0.00,0.000000,,2013-01-18 09:12:00,
2013-01-18 01:42:00,10.0,7.0,-100.00,NNW,340,1.0,2.0,88,-99.99,,,0.00,0.000000,,2013-01-18 09:42:00,
2013-01-18 01:52:00,10.0,7.0,-100.00,NNW,340,1.0,2.0,88,-99.99,,,0.00,0.000000,,2013-01-18 09:52:00,
2013-01-18 02:02:00,10.0,7.0,-100.00,NNW,340,1.0,2.0,88,-99.99,,,0.00,0.000000,,2013-01-18 10:02:00,
2013-01-18 02:12:00,10.0,7.0,-100.00,NNW,340,1.0,2.0,88,-99.99,,,0.00,0.000000,,2013-01-18 10:12:00,
2013-01-18 02:32:00,8.0,5.0,-100.00,North,0,0.0,0.0,86,-99.99,,,0.00,0.000000,,2013-01-18 10:32:00,
2013-01-18 02:42:00,8.0,5.0,-100.00,North,0,0.0,0.0,86,-99.99,,,0.00,0.000000,,2013-01-18 10:42:00,
2013-01-18 02:52:00,8.0,5.0,-100.00,North,0,0.0,0.0,86,-99.99,,,0.00,0.000000,,2013-01-18 10:52:00,
2013-01-18 03:02:00,8.0,5.0,-100.00,North,0,0.0,0.0,86,-99.99,,,0.00,0.000000,,2013-01-18 11:02:00,
2013-01-18 03:12:00,8.0,5.0,-100.00,North,0,0.0,0.0,86,-99.99,,,0.00,0.000000,,2013-01-18 11:12:00,
2013-01-18 03:42:00,7.0,4.0,-100.00,NNW,340,0.0,1.0,87,-99.99,,,0.00,0.000000,,2013-01-18 11:42:00,
2013-01-18 03:53:00,7.0,4.0,-100.00,NNW,340,0.0,1.0,87,-99.99,,,0.00,0.000000,,2013-01-18 11:53:00,
2013-01-18 04:02:00,7.0,4.0,-100.00,NNW,340,0.0,1.0,87,-99.99,,,0.00,0.000000,,2013-01-18 12:02:00,
2013-01-18 04:12:00,7.0,4.0,-100.00,NNW,340,0.0,1.0,87,-99.99,,,0.00,0.000000,,2013-01-18 12:12:00,
2013-01-18 04:42:00,6.0,2.0,-100.00,NNW,340,1.0,1.0,85,-99.99,,,0.00,0.000000,,2013-01-18 12:42:00,
2013-01-18 04:53:00,6.0,2.0,-100.00,NNW,340,1.0,1.0,85,-99.99,,,0.00,0.000000,,2013-01-18 12:53:00,
2013-01-18 05:02:00,6.0,2.0,-100.00,NNW,340,1.0,1.0,85,-99.99,,,0.00,0.000000,,2013-01-18 13:02:00,
2013-01-18 05:12:00,6.0,2.0,-100.00,NNW,340,1.0,1.0,85,-99.99,,,0.00,0.000000,,2013-01-18 13:12:00,
2013-01-18 05:33:00,6.0,2.0,-100.00,NNW,340,0.0,0.0,85,-99.99,,,0.00,0.000000,,2013-01-18 13:33:00,
2013-01-18 05:43:00,6.0,2.0,-100.00,NNW,340,0.0,0.0,85,-99.99,,,0.00,0.000000,,2013-01-18 13:43:00,
2013-01-18 05:53:00,6.0,2.0,-100.00,NNW,340,0.0,0.0,85,-99.99,,,0.00,0.000000,,2013-01-18 13:53:00,
2013-01-18 06:03:00,6.0,2.0,-100.00,NNW,340,0.0,0.0,85,-99.99,,,0.00,0.000000,,2013-01-18 14:03:00,
2013-01-18 06:12:00,6.0,2.0,-100.00,NNW,340,0.0,0.0,85,-99.99,,,0.00,0.000000,,2013-01-18 14:12:00,
2013-01-18 06:42:00,5.0,2.0,-100.00,North,0,0.0,0.0,85,-99.99,,,0.00,0.000000,,2013-01-18 14:42:00,
2013-01-18 06:53:00,5.0,2.0,-100.00,North,0,0.0,0.0,85,-99.99,,,0.00,0.000000,,2013-01-18 14:53:00,
2013-01-18 07:02:00,5.0,2.0,-100.00,North,0,0.0,0.0,85,-99.99,,,0.00,0.000000,,2013-01-18 15:02:00,
2013-01-18 07:12:00,5.0,2.0,-100.00,North,0,0.0,0.0,85,-99.99,,,0.00,0.000000,,2013-01-18 15:12:00,
2013-01-18 07:33:00,4.0,0.0,-100.00,North,0,0.0,0.0,83,-99.99,,,0.00,2.910000,,2013-01-18 15:33:00,
2013-01-18 07:43:00,4.0,0.0,-100.00,North,0,0.0,0.0,83,-99.99,,,0.00,2.910000,,2013-01-18 15:43:00,
2013-01-18 07:53:00,4.0,0.0,-100.00,North,0,0.0,0.0,83,-99.99,,,0.00,2.910000,,2013-01-18 15:53:00,
2013-01-18 08:02:00,4.0,0.0,-100.00,North,0,0.0,0.0,83,-99.99,,,0.00,2.910000,,2013-01-18 16:02:00,
2013-01-18 08:12:00,4.0,0.0,-100.00,North,0,0.0,0.0,83,-99.99,,,0.00,2.910000,,2013-01-18 16:12:00,
2013-01-18 08:33:00,11.0,8.0,-100.00,North,0,0.0,0.0,85,-99.99,,,0.00,113.199997,,2013-01-18 16:33:00,
2013-01-18 09:02:00,11.0,8.0,-100.00,North,0,0.0,0.0,85,-99.99,,,0.00,113.199997,,2013-01-18 17:02:00,
2013-01-18 09:12:00,11.0,8.0,-100.00,North,0,0.0,0.0,85,-99.99,,,0.00,113.199997,,2013-01-18 17:12:00,
2013-01-18 09:42:00,17.0,13.0,-100.00,East,87,2.0,5.0,80,-99.99,,,0.00,302.290009,,2013-01-18 17:42:00,
2013-01-18 09:53:00,17.0,13.0,-100.00,East,87,2.0,5.0,80,-99.99,,,0.00,302.290009,,2013-01-18 17:53:00,
2013-01-18 10:03:00,17.0,13.0,-100.00,East,87,2.0,5.0,80,-99.99,,,0.00,302.290009,,2013-01-18 18:03:00,
2013-01-18 10:12:00,17.0,13.0,-100.00,East,87,2.0,5.0,80,-99.99,,,0.00,302.290009,,2013-01-18 18:12:00,
2013-01-18 10:43:00,23.0,15.0,-100.00,East,84,2.0,4.0,69,-99.99,,,0.00,442.570007,,2013-01-18 18:43:00,
2013-01-18 10:53:00,23.0,15.0,-100.00,East,84,2.0,4.0,69,-99.99,,,0.00,442.570007,,2013-01-18 18:53:00,
2013-01-18 11:02:00,23.0,15.0,-100.00,East,84,2.0,4.0,69,-99.99,,,0.00,442.570007,,2013-01-18 19:02:00,
2013-01-18 11:12:00,23.0,15.0,-100.00,East,84,2.0,4.0,69,-99.99,,,0.00,442.570007,,2013-01-18 19:12:00,
2013-01-18 11:42:00,27.0,15.0,-100.00,East,88,3.0,7.0,61,-99.99,,,0.00,525.900024,,2013-01-18 19:42:00,
2013-01-18 11:53:00,27.0,15.0,-100.00,East,88,3.0,7.0,61,-99.99,,,0.00,525.900024,,2013-01-18 19:53:00,
2013-01-18 12:03:00,27.0,15.0,-100.00,East,88,3.0,7.0,61,-99.99,,,0.00,525.900024,,2013-01-18 20:03:00,
2013-01-18 12:12:00,27.0,15.0,-100.00,East,88,3.0,7.0,61,-99.99,,,0.00,525.900024,,2013-01-18 20:12:00,
2013-01-18 12:42:00,29.0,15.0,-100.00,NNE,16,3.0,7.0,55,-99.99,,,0.00,549.020020,,2013-01-18 20:42:00,
2013-01-18 12:53:00,29.0,15.0,-100.00,NNE,16,3.0,7.0,55,-99.99,,,0.00,549.020020,,2013-01-18 20:53:00,
2013-01-18 13:03:00,29.0,15.0,-100.00,NNE,16,3.0,7.0,55,-99.99,,,0.00,549.020020,,2013-01-18 21:03:00,
2013-01-18 13:12:00,29.0,15.0,-100.00,NNE,16,3.0,7.0,55,-99.99,,,0.00,549.020020,,2013-01-18 21:12:00,
2013-01-18 13:42:00,33.0,16.0,-100.00,ENE,73,3.0,7.0,48,-99.99,,,0.00,519.739990,,2013-01-18 21:42:00,
2013-01-18 13:53:00,33.0,16.0,-100.00,ENE,73,3.0,7.0,48,-99.99,,,0.00,519.739990,,2013-01-18 21:53:00,
2013-01-18 14:02:00,33.0,16.0,-100.00,ENE,73,3.0,7.0,48,-99.99,,,0.00,519.739990,,2013-01-18 22:02:00,
2013-01-18 14:12:00,33.0,16.0,-100.00,ENE,73,3.0,7.0,48,-99.99,,,0.00,519.739990,,2013-01-18 22:12:00,
2013-01-18 14:42:00,35.0,15.0,-100.00,NE,38,2.0,5.0,44,-99.99,,,0.00,430.709991,,2013-01-18 22:42:00,
2013-01-18 14:53:00,35.0,15.0,-100.00,NE,38,2.0,5.0,44,-99.99,,,0.00,430.709991,,2013-01-18 22:53:00,
2013-01-18 15:02:00,35.0,15.0,-100.00,NE,38,2.0,5.0,44,-99.99,,,0.00,430.709991,,2013-01-18 23:02:00,
2013-01-18 15:12:00,35.0,15.0,-100.00,NE,38,2.0,5.0,44,-99.99,,,0.00,430.709991,,2013-01-18 23:12:00,
2013-01-18 15:32:00,35.0,15.0,-100.00,NE,51,3.0,6.0,44,-99.99,,,0.00,297.640015,,2013-01-18 23:32:00,
2013-01-18 15:42:00,35.0,15.0,-100.00,NE,51,3.0,6.0,44,-99.99,,,0.00,297.640015,,2013-01-18 23:42:00,
2013-01-18 15:53:00,35.0,15.0,-100.00,NE,51,3.0,6.0,44,-99.99,,,0.00,297.640015,,2013-01-18 23:53:00,
2013-01-18 16:02:00,35.0,15.0,-100.00,NE,51,3.0,6.0,44,-99.99,,,0.00,297.640015,,2013-01-19 00:02:00,
2013-01-18 16:12:00,35.0,15.0,-100.00,NE,51,3.0,6.0,44,-99.99,,,0.00,297.640015,,2013-01-19 00:12:00,
2013-01-18 16:42:00,34.0,15.0,-100.00,NE,51,3.0,6.0,45,-99.99,,,0.00,138.300003,,2013-01-19 00:42:00,
2013-01-18 16:53:00,34.0,15.0,-100.00,NE,51,3.0,6.0,45,-99.99,,,0.00,138.300003,,2013-01-19 00:53:00,
2013-01-18 17:02:00,34.0,15.0,-100.00,NE,51,3.0,6.0,45,-99.99,,,0.00,138.300003,,2013-01-19 01:02:00,
2013-01-18 17:12:00,34.0,15.0,-100.00,NE,51,3.0,6.0,45,-99.99,,,0.00,138.300003,,2013-01-19 01:12:00,
2013-01-18 17:42:00,31.0,15.0,-100.00,NE,52,1.0,2.0,51,-99.99,,,0.00,1.860000,,2013-01-19 01:42:00,
2013-01-18 17:52:00,31.0,15.0,-100.00,NE,52,1.0,2.0,51,-99.99,,,0.00,1.860000,,2013-01-19 01:52:00,
2013-01-18 18:02:00,31.0,15.0,-100.00,NE,52,1.0,2.0,51,-99.99,,,0.00,1.860000,,2013-01-19 02:02:00,
2013-01-18 18:12:00,31.0,15.0,-100.00,NE,52,1.0,2.0,51,-99.99,,,0.00,1.860000,,2013-01-19 02:12:00,
2013-01-18 18:33:00,23.0,13.0,-100.00,ESE,115,0.0,1.0,64,-99.99,,,0.00,0.000000,,2013-01-19 02:33:00,
2013-01-18 18:42:00,23.0,13.0,-100.00,ESE,115,0.0,1.0,64,-99.99,,,0.00,0.000000,,2013-01-19 02:42:00,
2013-01-18 18:53:00,23.0,13.0,-100.00,ESE,115,0.0,1.0,64,-99.99,,,0.00,0.000000,,2013-01-19 02:53:00,
2013-01-18 19:02:00,23.0,13.0,-100.00,ESE,115,0.0,1.0,64,-99.99,,,0.00,0.000000,,2013-01-19 03:02:00,
2013-01-18 19:12:00,23.0,13.0,-100.00,ESE,115,0.0,1.0,64,-99.99,,,0.00,0.000000,,2013-01-19 03:12:00,
2013-01-18 19:43:00,19.0,13.0,-100.00,North,0,0.0,0.0,74,-99.99,,,0.00,0.000000,,2013-01-19 03:43:00,
2013-01-18 19:52:00,19.0,13.0,-100.00,North,0,0.0,0.0,74,-99.99,,,0.00,0.000000,,2013-01-19 03:52:00,
2013-01-18 20:02:00,19.0,13.0,-100.00,North,0,0.0,0.0,74,-99.99,,,0.00,0.000000,,2013-01-19 04:02:00,
2013-01-18 20:12:00,19.0,13.0,-100.00,North,0,0.0,0.0,74,-99.99,,,0.00,0.000000,,2013-01-19 04:12:00,
2013-01-18 20:42:00,17.0,12.0,-100.00,ENE,57,0.0,1.0,77,-99.99,,,0.00,0.120000,,2013-01-19 04:42:00,
2013-01-18 20:53:00,17.0,12.0,-100.00,ENE,57,0.0,1.0,77,-99.99,,,0.00,0.120000,,2013-01-19 04:53:00,
2013-01-18 21:03:00,17.0,12.0,-100.00,ENE,57,0.0,1.0,77,-99.99,,,0.00,0.120000,,2013-01-19 05:03:00,
2013-01-18 21:12:00,17.0,12.0,-100.00,ENE,57,0.0,1.0,77,-99.99,,,0.00,0.120000,,2013-01-19 05:12:00,
2013-01-18 21:32:00,18.0,13.0,-100.00,North,1,1.0,3.0,81,-99.99,,,0.00,0.120000,,2013-01-19 05:32:00,
2013-01-18 21:42:00,18.0,13.0,-100.00,North,1,1.0,3.0,81,-99.99,,,0.00,0.120000,,2013-01-19 05:42:00,
2013-01-18 21:53:00,18.0,13.0,-100.00,North,1,1.0,3.0,81,-99.99,,,0.00,0.120000,,2013-01-19 05:53:00,
2013-01-18 22:02:00,18.0,13.0,-100.00,North,1,1.0,3.0,81,-99.99,,,0.00,0.120000,,2013-01-19 06:02:00,
2013-01-18 22:12:00,18.0,13.0,-100.00,North,1,1.0,3.0,81,-99.99,,,0.00,0.120000,,2013-01-19 06:12:00,
2013-01-18 22:43:00,15.0,12.0,-100.00,North,2,3.0,4.0,86,-99.99,,,0.00,0.120000,,2013-01-19 06:43:00,
2013-01-18 22:53:00,15.0,12.0,-100.00,North,2,3.0,4.0,86,-99.99,,,0.00,0.120000,,2013-01-19 06:53:00,
2013-01-18 23:02:00,15.0,12.0,-100.00,North,2,3.0,4.0,86,-99.99,,,0.00,0.120000,,2013-01-19 07:02:00,
2013-01-18 23:12:00,15.0,12.0,-100.00,North,2,3.0,4.0,86,-99.99,,,0.00,0.120000,,2013-01-19 07:12:00,
2013-01-18 23:52:00,14.0,9.0,-100.00,North,8,3.0,5.0,81,-99.99,,,0.00,0.000000,,2013-01-19 07:52:00,